Time;durP1;ratioP1;P1;durP2;ratioP2;P2;SDS_P1;SDS_P2;PMS_P1;PMS_P2;Temp;Humidity;BMP_temperature;BMP_pressure;BME280_temperature;BME280_humidity;BME280_pressure;Samples;Min_cycle;Max_cycle;Signal;HPM_P1;HPM_P2
2024/01/06 00:01:31;;;;;;;42.90;27.75;;;3.00;99.90;;;;;;5066570;28;20418;-67
2024/01/06 00:03:57;;;;;;;36.33;24.80;;;3.00;99.90;;;;;;5067199;28;20942;-67
2024/01/06 00:06:24;;;;;;;47.17;29.07;;;3.00;99.90;;;;;;5067382;28;20392;-67
2024/01/06 00:08:53;;;;;;;42.55;27.17;;;3.00;99.90;;;;;;5065512;28;20425;-67
2024/01/06 00:11:22;;;;;;;38.30;26.10;;;3.10;99.90;;;;;;5065073;28;20438;-66
2024/01/06 00:13:48;;;;;;;42.13;27.63;;;3.00;99.90;;;;;;5033132;28;20399;-66
2024/01/06 00:16:18;;;;;;;30.15;23.42;;;3.00;99.90;;;;;;5067394;28;20396;-66
2024/01/06 00:18:43;;;;;;;35.03;24.80;;;2.90;99.90;;;;;;5065669;28;20974;-66
2024/01/06 00:21:09;;;;;;;60.85;36.47;;;2.90;99.90;;;;;;5067368;28;20403;-66
2024/01/06 00:23:35;;;;;;;63.27;38.33;;;2.90;99.90;;;;;;5067471;28;20418;-67
2024/01/06 00:26:00;;;;;;;72.80;42.20;;;2.90;99.90;;;;;;5048753;28;20992;-67
2024/01/06 00:28:26;;;;;;;65.30;40.60;;;2.90;99.90;;;;;;5048444;28;20418;-67
2024/01/06 00:30:53;;;;;;;73.57;43.87;;;2.80;99.90;;;;;;5066731;28;20415;-67
2024/01/06 00:33:19;;;;;;;70.60;43.00;;;2.80;99.90;;;;;;5066830;28;20419;-67
2024/01/06 00:35:44;;;;;;;67.22;41.55;;;2.80;99.90;;;;;;5049175;28;20741;-66
2024/01/06 00:38:10;;;;;;;55.67;38.20;;;2.70;99.90;;;;;;5067095;28;20409;-67
2024/01/06 00:40:36;;;;;;;61.10;39.57;;;2.80;99.90;;;;;;5067278;28;20888;-67
2024/01/06 00:43:01;;;;;;;48.73;35.00;;;2.70;99.90;;;;;;5067443;28;20461;-66
2024/01/06 00:45:27;;;;;;;46.03;34.55;;;2.60;99.90;;;;;;5068326;28;20437;-67
2024/01/06 00:47:53;;;;;;;48.53;34.47;;;2.60;99.90;;;;;;5072068;28;20510;-67
2024/01/06 00:50:19;;;;;;;57.53;37.90;;;2.60;99.90;;;;;;5064948;28;20502;-66
2024/01/06 00:52:45;;;;;;;47.43;33.80;;;2.60;99.90;;;;;;5034204;28;20429;-67
2024/01/06 00:55:11;;;;;;;44.58;33.20;;;2.60;99.90;;;;;;5067700;28;20435;-67
2024/01/06 00:57:37;;;;;;;47.07;34.63;;;2.50;99.90;;;;;;5068915;28;20395;-66
2024/01/06 01:00:05;;;;;;;51.35;36.55;;;2.40;99.90;;;;;;5069650;28;20411;-67
2024/01/06 01:02:31;;;;;;;53.13;36.45;;;2.50;99.90;;;;;;5069972;28;20769;-67
2024/01/06 01:04:57;;;;;;;46.97;33.45;;;2.50;99.90;;;;;;5071186;28;20400;-66
2024/01/06 01:07:23;;;;;;;56.42;36.67;;;2.40;99.90;;;;;;5070538;28;20409;-67
2024/01/06 01:09:49;;;;;;;48.15;34.67;;;2.40;99.90;;;;;;5067611;28;20407;-66
2024/01/06 01:12:15;;;;;;;55.30;37.75;;;2.50;99.90;;;;;;5070533;28;20452;-67
2024/01/06 01:14:40;;;;;;;53.15;37.28;;;2.50;99.90;;;;;;5069585;28;20541;-67
2024/01/06 01:17:06;;;;;;;49.80;35.73;;;2.50;99.90;;;;;;5070404;28;20567;-66
2024/01/06 01:19:32;;;;;;;54.63;37.77;;;2.40;99.90;;;;;;5068786;28;20426;-67
2024/01/06 01:21:57;;;;;;;51.53;36.72;;;2.40;99.90;;;;;;5070008;28;20423;-67
2024/01/06 01:24:23;;;;;;;57.65;40.67;;;2.40;99.90;;;;;;5070469;28;20444;-67
2024/01/06 01:26:49;;;;;;;61.38;41.30;;;2.40;99.90;;;;;;5070056;28;20892;-67
2024/01/06 01:29:20;;;;;;;54.33;39.40;;;2.40;99.90;;;;;;5069027;28;20967;-66
2024/01/06 01:31:47;;;;;;;61.63;42.67;;;2.40;99.90;;;;;;5069682;28;20951;-66
2024/01/06 01:34:12;;;;;;;66.95;45.25;;;2.40;99.90;;;;;;5068123;28;20437;-67
2024/01/06 01:36:38;;;;;;;66.28;44.60;;;2.30;99.90;;;;;;5069663;28;20398;-67
2024/01/06 01:39:04;;;;;;;60.22;43.20;;;2.30;99.90;;;;;;5069159;28;20419;-67
2024/01/06 01:41:30;;;;;;;73.45;47.03;;;2.20;99.90;;;;;;5068966;28;20392;-66
2024/01/06 01:43:59;;;;;;;75.00;47.10;;;2.30;99.90;;;;;;5070513;28;20395;-67
2024/01/06 01:46:28;;;;;;;60.30;42.75;;;2.30;99.90;;;;;;5068883;28;20906;-67
2024/01/06 01:48:55;;;;;;;56.03;39.97;;;2.30;99.90;;;;;;5070110;28;20470;-67
2024/01/06 01:51:21;;;;;;;56.47;39.55;;;2.30;99.90;;;;;;5068897;28;20415;-67
2024/01/06 01:53:48;;;;;;;44.97;34.83;;;2.30;99.90;;;;;;5066647;28;20417;-67
2024/01/06 01:56:14;;;;;;;53.92;38.28;;;2.20;99.90;;;;;;5049652;28;20388;-67
2024/01/06 01:58:41;;;;;;;52.90;37.20;;;2.20;99.90;;;;;;5065819;28;20414;-66
2024/01/06 02:01:08;;;;;;;54.50;38.97;;;2.10;99.90;;;;;;5068030;28;20400;-67
2024/01/06 02:03:35;;;;;;;40.30;31.85;;;2.20;99.90;;;;;;5067622;28;20948;-66
2024/01/06 02:06:01;;;;;;;44.58;34.17;;;2.20;99.90;;;;;;5095840;27;20521;-67
2024/01/06 02:08:27;;;;;;;50.70;36.65;;;2.10;99.90;;;;;;5050641;28;20815;-66
2024/01/06 02:10:56;;;;;;;49.75;35.70;;;2.10;99.90;;;;;;5069453;28;20396;-66
2024/01/06 02:13:22;;;;;;;41.47;32.53;;;2.20;99.90;;;;;;5069013;28;20395;-66
2024/01/06 02:15:48;;;;;;;53.47;37.72;;;2.10;99.90;;;;;;5067426;28;20832;-66
2024/01/06 02:18:14;;;;;;;44.38;34.72;;;2.10;99.90;;;;;;5050430;28;20519;-66
2024/01/06 02:20:43;;;;;;;53.57;37.93;;;2.10;99.90;;;;;;5066920;28;20408;-66
2024/01/06 02:23:09;;;;;;;53.65;37.50;;;2.10;99.90;;;;;;5068766;28;20847;-66
2024/01/06 02:25:35;;;;;;;53.88;37.00;;;2.10;99.90;;;;;;5067922;28;20740;-66
2024/01/06 02:28:01;;;;;;;48.08;35.92;;;2.10;99.90;;;;;;5069022;28;20445;-67
2024/01/06 02:30:27;;;;;;;50.40;37.30;;;2.10;99.90;;;;;;5067602;28;20445;-66
2024/01/06 02:32:52;;;;;;;54.20;38.20;;;2.10;99.90;;;;;;5067929;28;20635;-66
2024/01/06 02:35:18;;;;;;;50.33;37.50;;;2.10;99.90;;;;;;5069052;28;20400;-66
2024/01/06 02:37:44;;;;;;;56.77;39.67;;;2.00;99.90;;;;;;5068656;28;20403;-67
2024/01/06 02:40:11;;;;;;;56.60;39.50;;;2.00;99.90;;;;;;5069985;28;20420;-66
2024/01/06 02:42:36;;;;;;;58.20;40.03;;;2.00;99.90;;;;;;5068732;28;20434;-66
2024/01/06 02:45:02;;;;;;;60.60;41.40;;;2.00;99.90;;;;;;5067193;28;20421;-66
2024/01/06 02:47:28;;;;;;;57.60;41.23;;;2.00;99.90;;;;;;5068400;28;20407;-66
2024/01/06 02:49:54;;;;;;;65.87;44.70;;;1.90;99.90;;;;;;5067834;28;20396;-66
2024/01/06 02:52:20;;;;;;;66.10;43.37;;;1.90;99.90;;;;;;5067964;28;20428;-67
2024/01/06 02:54:45;;;;;;;66.70;43.42;;;1.90;99.90;;;;;;5066795;28;20466;-66
2024/01/06 02:57:13;;;;;;;70.28;44.45;;;2.00;99.90;;;;;;5067184;28;20414;-67
2024/01/06 02:59:39;;;;;;;61.33;41.05;;;1.90;99.90;;;;;;5068042;28;21129;-67
2024/01/06 03:02:05;;;;;;;66.40;43.27;;;1.80;99.90;;;;;;5067840;28;20399;-67
2024/01/06 03:04:30;;;;;;;78.27;46.20;;;1.80;99.90;;;;;;5066331;28;20451;-66
2024/01/06 03:06:56;;;;;;;75.30;46.10;;;1.80;99.90;;;;;;5068254;28;20502;-67
2024/01/06 03:09:22;;;;;;;81.65;47.33;;;1.80;99.90;;;;;;5067550;28;20434;-67
2024/01/06 03:11:47;;;;;;;85.23;47.13;;;1.80;99.90;;;;;;5067414;28;20919;-66
2024/01/06 03:14:13;;;;;;;92.33;49.53;;;1.80;99.90;;;;;;5068061;28;20510;-66
2024/01/06 03:16:39;;;;;;;90.47;49.47;;;1.80;99.90;;;;;;5066569;28;20430;-67
2024/01/06 03:19:05;;;;;;;92.93;49.70;;;1.80;99.90;;;;;;5066167;28;20681;-66
2024/01/06 03:21:30;;;;;;;81.05;47.45;;;1.80;99.90;;;;;;5067016;28;20410;-67
2024/01/06 03:23:56;;;;;;;77.30;45.20;;;1.80;99.90;;;;;;5066685;28;20427;-67
2024/01/06 03:26:22;;;;;;;70.53;43.08;;;1.80;99.90;;;;;;5068376;28;20404;-66
2024/01/06 03:28:51;;;;;;;78.18;45.30;;;1.80;99.90;;;;;;5049924;28;20403;-67
2024/01/06 03:31:16;;;;;;;76.32;43.83;;;1.80;99.90;;;;;;5068168;28;20927;-66
2024/01/06 03:33:43;;;;;;;70.23;41.93;;;1.70;99.90;;;;;;5058146;28;20423;-67
2024/01/06 03:36:12;;;;;;;73.00;43.20;;;1.70;99.90;;;;;;5067592;28;20446;-67
2024/01/06 03:38:37;;;;;;;91.20;49.15;;;1.70;99.90;;;;;;5069085;28;20749;-67
2024/01/06 03:41:03;;;;;;;92.07;49.03;;;1.80;99.90;;;;;;5066678;28;20391;-66
2024/01/06 03:43:29;;;;;;;93.80;49.70;;;1.80;99.90;;;;;;5065244;28;20416;-67
2024/01/06 03:45:56;;;;;;;92.63;49.47;;;1.70;99.90;;;;;;5067841;28;20395;-66
2024/01/06 03:48:22;;;;;;;81.80;46.22;;;1.80;99.90;;;;;;5068147;28;20399;-66
2024/01/06 03:50:48;;;;;;;90.37;49.57;;;1.80;99.90;;;;;;5065820;28;20415;-66
2024/01/06 03:53:13;;;;;;;86.97;48.47;;;1.80;99.90;;;;;;5066888;28;20424;-66
2024/01/06 03:55:39;;;;;;;76.15;43.95;;;1.80;99.90;;;;;;5068256;28;20419;-67
2024/01/06 03:58:05;;;;;;;79.47;44.13;;;1.80;99.90;;;;;;5067734;28;20730;-67
2024/01/06 04:00:31;;;;;;;75.53;43.38;;;1.80;99.90;;;;;;5066239;28;20410;-67
2024/01/06 04:02:57;;;;;;;75.55;43.60;;;1.80;99.90;;;;;;5067843;28;20763;-66
2024/01/06 04:05:23;;;;;;;60.38;38.85;;;1.80;99.90;;;;;;5066158;28;20434;-67
2024/01/06 04:07:49;;;;;;;70.13;41.53;;;1.80;99.90;;;;;;5065995;28;20427;-66
2024/01/06 04:10:15;;;;;;;62.55;39.40;;;1.80;99.90;;;;;;5065832;28;20392;-67
2024/01/06 04:12:40;;;;;;;73.85;43.28;;;1.80;99.90;;;;;;5067402;28;20459;-67
2024/01/06 04:15:06;;;;;;;77.13;43.53;;;1.80;99.90;;;;;;5065924;28;20408;-67
2024/01/06 04:17:33;;;;;;;64.57;38.72;;;1.70;99.90;;;;;;5067299;28;20391;-67
2024/01/06 04:19:58;;;;;;;47.30;32.72;;;1.70;99.90;;;;;;5065687;28;20507;-66
2024/01/06 04:22:24;;;;;;;60.72;37.47;;;1.70;99.90;;;;;;5071189;28;20542;-66
2024/01/06 04:24:50;;;;;;;56.47;36.17;;;1.70;99.90;;;;;;5070671;28;20411;-66
2024/01/06 04:27:16;;;;;;;56.87;36.50;;;1.70;99.90;;;;;;5070566;28;20403;-67
2024/01/06 04:29:41;;;;;;;57.85;36.58;;;1.70;99.90;;;;;;5071488;28;20938;-67
2024/01/06 04:32:07;;;;;;;53.53;35.55;;;1.70;99.90;;;;;;5070227;28;20869;-66
2024/01/06 04:34:33;;;;;;;56.15;36.40;;;1.70;99.90;;;;;;5052141;28;20415;-66
2024/01/06 04:36:59;;;;;;;53.03;35.67;;;1.70;99.90;;;;;;5071175;28;20396;-66
2024/01/06 04:39:25;;;;;;;52.10;34.90;;;1.70;99.90;;;;;;5069985;28;20473;-66
2024/01/06 04:41:50;;;;;;;55.87;36.30;;;1.70;99.90;;;;;;5068547;28;20412;-66
2024/01/06 04:44:18;;;;;;;45.10;32.50;;;1.70;99.90;;;;;;5070070;28;20423;-66
2024/01/06 04:46:43;;;;;;;45.53;33.53;;;1.70;99.90;;;;;;5069895;28;20408;-67
2024/01/06 04:49:10;;;;;;;45.67;33.10;;;1.70;99.90;;;;;;5053731;28;20498;-66
2024/01/06 04:51:36;;;;;;;41.90;31.33;;;1.60;99.90;;;;;;5070001;28;20411;-67
2024/01/06 04:54:02;;;;;;;40.78;31.30;;;1.50;99.90;;;;;;5069842;28;20419;-66
2024/01/06 04:56:27;;;;;;;46.00;33.20;;;1.60;99.90;;;;;;5037051;28;20464;-67
2024/01/06 04:58:53;;;;;;;51.63;33.63;;;1.60;99.90;;;;;;5071525;28;20392;-66
2024/01/06 05:01:19;;;;;;;55.08;35.58;;;1.60;99.90;;;;;;5069526;28;20526;-67
2024/01/06 05:03:44;;;;;;;50.03;33.58;;;1.70;99.90;;;;;;5067795;28;20646;-66
2024/01/06 05:06:11;;;;;;;43.15;31.48;;;1.70;99.90;;;;;;5068111;28;20912;-66
2024/01/06 05:08:43;;;;;;;43.67;31.48;;;1.70;99.90;;;;;;5068716;28;20442;-66
2024/01/06 05:11:09;;;;;;;47.75;33.67;;;1.60;99.90;;;;;;5069616;28;20399;-66
2024/01/06 05:13:35;;;;;;;49.13;34.23;;;1.70;99.90;;;;;;5069598;28;20415;-66
2024/01/06 05:16:00;;;;;;;60.07;37.13;;;1.60;99.90;;;;;;5070797;28;20395;-66
2024/01/06 05:18:26;;;;;;;52.50;35.78;;;1.70;99.90;;;;;;5068782;28;20398;-66
2024/01/06 05:20:52;;;;;;;63.70;39.28;;;1.70;99.90;;;;;;5068221;28;20404;-66
2024/01/06 05:23:18;;;;;;;62.72;38.08;;;1.70;99.90;;;;;;5069636;28;20534;-66
2024/01/06 05:25:44;;;;;;;51.55;36.28;;;1.70;99.90;;;;;;5068094;28;20435;-66
2024/01/06 05:28:09;;;;;;;56.53;36.67;;;1.60;99.90;;;;;;5068724;28;20403;-66
2024/01/06 05:30:35;;;;;;;57.63;37.20;;;1.60;99.90;;;;;;5069516;28;20404;-66
2024/01/06 05:33:02;;;;;;;63.33;38.38;;;1.60;99.90;;;;;;5068131;28;21000;-66
2024/01/06 05:35:28;;;;;;;59.45;37.78;;;1.60;99.90;;;;;;5069042;28;20500;-67
2024/01/06 05:37:54;;;;;;;62.22;38.53;;;1.50;99.90;;;;;;5071226;28;20419;-66
2024/01/06 05:40:19;;;;;;;62.35;38.53;;;1.50;99.90;;;;;;5069124;28;20461;-66
2024/01/06 05:42:45;;;;;;;72.83;41.47;;;1.50;99.90;;;;;;5070019;28;20419;-66
2024/01/06 05:45:14;;;;;;;70.30;40.83;;;1.50;99.90;;;;;;5068799;28;20423;-67
2024/01/06 05:47:40;;;;;;;77.03;42.33;;;1.60;99.90;;;;;;5097127;27;20813;-67
2024/01/06 05:50:10;;;;;;;70.53;40.20;;;1.50;99.90;;;;;;5068828;28;20445;-67
2024/01/06 05:52:35;;;;;;;71.22;40.85;;;1.50;99.90;;;;;;5071651;28;20510;-66
2024/01/06 05:55:01;;;;;;;74.97;42.00;;;1.50;99.90;;;;;;5069327;28;20498;-66
2024/01/06 05:57:27;;;;;;;81.17;43.90;;;1.50;99.90;;;;;;5070478;28;20476;-66
2024/01/06 05:59:52;;;;;;;83.80;44.00;;;1.50;99.90;;;;;;5068882;28;20459;-67
2024/01/06 06:02:18;;;;;;;79.20;41.83;;;1.50;99.90;;;;;;5067828;28;20425;-67
2024/01/06 06:04:44;;;;;;;66.53;38.83;;;1.50;99.90;;;;;;5069071;28;20407;-66
2024/01/06 06:07:09;;;;;;;59.47;37.20;;;1.50;99.90;;;;;;5069127;28;20494;-66
2024/01/06 06:09:35;;;;;;;65.68;39.60;;;1.50;99.90;;;;;;5070150;28;20404;-67
2024/01/06 06:12:01;;;;;;;67.95;39.50;;;1.40;99.90;;;;;;5068587;28;20442;-66
2024/01/06 06:14:28;;;;;;;82.23;43.00;;;1.50;99.90;;;;;;5069412;28;20405;-67
2024/01/06 06:16:54;;;;;;;73.78;40.90;;;1.40;99.90;;;;;;5070108;28;20480;-66
2024/01/06 06:19:20;;;;;;;79.43;44.20;;;1.40;99.90;;;;;;5068306;28;20398;-66
2024/01/06 06:21:46;;;;;;;80.85;42.42;;;1.40;99.90;;;;;;5067867;28;20459;-67
2024/01/06 06:24:11;;;;;;;69.47;39.55;;;1.40;99.90;;;;;;5051483;28;20869;-66
2024/01/06 06:26:37;;;;;;;76.47;41.77;;;1.40;99.90;;;;;;5068327;28;20454;-66
2024/01/06 06:29:03;;;;;;;72.03;41.27;;;1.30;99.90;;;;;;5069848;28;20570;-67
2024/01/06 06:31:28;;;;;;;82.15;43.85;;;1.40;99.90;;;;;;5067715;28;20423;-67
2024/01/06 06:33:54;;;;;;;93.10;45.33;;;1.40;99.90;;;;;;5070056;28;20928;-67
2024/01/06 06:36:20;;;;;;;80.37;43.10;;;1.30;99.90;;;;;;5051757;28;20479;-66
2024/01/06 06:38:45;;;;;;;74.43;41.10;;;1.40;99.90;;;;;;5065146;28;20411;-66
2024/01/06 06:41:11;;;;;;;82.50;43.75;;;1.40;99.90;;;;;;5068456;28;20865;-66
2024/01/06 06:43:37;;;;;;;76.82;43.20;;;1.40;99.90;;;;;;5067627;28;20498;-67
2024/01/06 06:46:03;;;;;;;70.10;40.67;;;1.40;99.90;;;;;;5068659;28;20416;-66
2024/01/06 06:48:29;;;;;;;71.93;41.40;;;1.40;99.90;;;;;;5068756;28;20907;-66
2024/01/06 06:50:55;;;;;;;68.03;40.67;;;1.40;99.90;;;;;;5067500;28;20522;-67
2024/01/06 06:53:21;;;;;;;67.73;39.27;;;1.40;99.90;;;;;;5066842;28;20991;-66
2024/01/06 06:55:47;;;;;;;59.13;38.88;;;1.40;99.90;;;;;;5068283;28;20404;-67
2024/01/06 06:58:13;;;;;;;65.28;38.97;;;1.40;99.90;;;;;;5067845;28;20889;-66
2024/01/06 07:00:39;;;;;;;69.32;41.53;;;1.40;99.90;;;;;;5068994;28;20476;-66
2024/01/06 07:03:05;;;;;;;56.83;38.20;;;1.30;99.90;;;;;;5068122;28;20424;-67
2024/01/06 07:05:30;;;;;;;62.03;38.33;;;1.30;99.90;;;;;;5066306;28;20412;-66
2024/01/06 07:07:56;;;;;;;60.67;38.07;;;1.30;99.90;;;;;;5050989;28;20407;-67
2024/01/06 07:10:22;;;;;;;54.05;36.03;;;1.30;99.90;;;;;;5066390;28;20408;-66
2024/01/06 07:12:48;;;;;;;57.25;37.00;;;1.30;99.90;;;;;;5067578;28;20795;-66
2024/01/06 07:15:14;;;;;;;52.95;36.00;;;1.30;99.90;;;;;;5067691;28;20407;-67
2024/01/06 07:17:39;;;;;;;48.55;32.97;;;1.30;99.90;;;;;;5067600;28;20436;-67
2024/01/06 07:20:06;;;;;;;50.30;34.35;;;1.30;99.90;;;;;;5066021;28;20852;-67
2024/01/06 07:22:36;;;;;;;44.80;32.88;;;1.30;99.90;;;;;;5067401;28;20537;-66
2024/01/06 07:25:02;;;;;;;44.80;31.75;;;1.20;99.90;;;;;;5068026;28;20430;-67
2024/01/06 07:27:28;;;;;;;50.53;35.17;;;1.30;99.90;;;;;;5067132;28;20407;-67
2024/01/06 07:29:55;;;;;;;50.47;35.30;;;1.30;99.90;;;;;;5068617;28;20395;-67
2024/01/06 07:32:24;;;;;;;50.60;35.03;;;1.30;99.90;;;;;;5067933;28;20499;-67
2024/01/06 07:34:50;;;;;;;48.75;34.97;;;1.30;99.90;;;;;;5061381;28;20404;-67
2024/01/06 07:37:16;;;;;;;49.35;34.60;;;1.30;99.90;;;;;;5063223;28;20464;-67
2024/01/06 07:39:42;;;;;;;42.05;32.35;;;1.30;99.90;;;;;;5066267;28;20807;-67
2024/01/06 07:42:08;;;;;;;48.70;33.78;;;1.30;99.90;;;;;;5068271;28;20419;-67
2024/01/06 07:44:34;;;;;;;40.78;31.98;;;1.30;99.90;;;;;;5066242;28;20499;-66
2024/01/06 07:47:02;;;;;;;40.67;31.30;;;1.40;99.90;;;;;;5067227;28;20427;-66
2024/01/06 07:49:27;;;;;;;37.10;30.40;;;1.30;99.90;;;;;;5066525;28;20491;-67
2024/01/06 07:51:53;;;;;;;44.70;32.60;;;1.30;99.90;;;;;;5063577;28;20515;-67
2024/01/06 07:54:19;;;;;;;38.78;30.75;;;1.30;99.90;;;;;;5065506;28;20884;-67
2024/01/06 07:56:45;;;;;;;40.13;31.67;;;1.30;99.90;;;;;;5071204;28;20395;-66
2024/01/06 07:59:11;;;;;;;44.50;33.25;;;1.30;99.90;;;;;;5071274;28;20447;-66
2024/01/06 08:01:37;;;;;;;40.92;31.25;;;1.30;99.90;;;;;;5070215;28;20443;-67
2024/01/06 08:04:02;;;;;;;46.67;34.03;;;1.30;99.90;;;;;;5070904;28;20637;-66
2024/01/06 08:06:28;;;;;;;40.08;31.15;;;1.30;99.90;;;;;;5063735;28;20401;-67
2024/01/06 08:08:54;;;;;;;40.05;31.45;;;1.30;99.90;;;;;;5072431;28;20395;-66
2024/01/06 08:11:20;;;;;;;37.03;29.80;;;1.30;99.90;;;;;;5070751;28;20387;-66
2024/01/06 08:13:47;;;;;;;40.55;31.55;;;1.30;99.90;;;;;;5068071;28;20427;-66
2024/01/06 08:16:12;;;;;;;38.88;31.13;;;1.20;99.90;;;;;;5070903;28;20904;-66
2024/01/06 08:18:38;;;;;;;43.28;33.08;;;1.20;99.90;;;;;;5070763;28;20406;-67
2024/01/06 08:21:04;;;;;;;41.95;32.97;;;1.20;99.90;;;;;;5070788;28;20414;-66
2024/01/06 08:23:29;;;;;;;43.25;33.42;;;1.20;99.90;;;;;;5069463;28;20434;-66
2024/01/06 08:25:56;;;;;;;40.03;31.43;;;1.30;99.90;;;;;;5071924;28;20414;-67
2024/01/06 08:28:23;;;;;;;42.47;32.65;;;1.30;99.90;;;;;;5052567;28;20912;-66
2024/01/06 08:30:49;;;;;;;39.90;32.58;;;1.30;99.90;;;;;;5070081;28;20419;-66
2024/01/06 08:33:15;;;;;;;39.72;31.67;;;1.20;99.90;;;;;;5070725;28;20419;-66
2024/01/06 08:35:40;;;;;;;42.47;33.33;;;1.30;99.90;;;;;;5071822;28;20398;-66
2024/01/06 08:38:07;;;;;;;37.27;30.67;;;1.30;99.90;;;;;;5070477;28;21193;-67
2024/01/06 08:40:34;;;;;;;40.78;31.55;;;1.20;99.90;;;;;;5071295;28;20396;-66
2024/01/06 08:42:59;;;;;;;38.90;31.58;;;1.30;99.90;;;;;;5071809;28;20915;-66
2024/01/06 08:45:25;;;;;;;39.60;31.63;;;1.30;99.90;;;;;;5070437;28;20431;-66
2024/01/06 08:47:51;;;;;;;39.00;31.38;;;1.30;99.90;;;;;;5070738;28;20932;-66
2024/01/06 08:50:17;;;;;;;39.27;31.70;;;1.30;99.90;;;;;;5053665;28;20414;-66
2024/01/06 08:52:42;;;;;;;40.03;32.10;;;1.30;99.90;;;;;;5070310;28;20455;-66
2024/01/06 08:55:08;;;;;;;34.20;29.35;;;1.30;99.90;;;;;;5070651;28;20400;-66
2024/01/06 08:57:34;;;;;;;35.70;28.90;;;1.30;99.90;;;;;;5068995;28;20404;-66
2024/01/06 08:59:59;;;;;;;33.60;28.23;;;1.30;99.90;;;;;;5071409;28;20448;-66
2024/01/06 09:02:25;;;;;;;31.90;28.23;;;1.30;99.90;;;;;;5069794;28;20396;-66
2024/01/06 09:04:51;;;;;;;34.15;28.77;;;1.30;99.90;;;;;;5069242;28;20419;-66
2024/01/06 09:07:19;;;;;;;33.25;28.35;;;1.30;99.90;;;;;;5068280;28;20428;-66
2024/01/06 09:09:45;;;;;;;34.25;28.73;;;1.30;99.90;;;;;;5078544;28;20391;-67
2024/01/06 09:12:11;;;;;;;33.38;28.50;;;1.30;99.90;;;;;;5053364;28;20459;-66
2024/01/06 09:14:37;;;;;;;32.83;28.92;;;1.30;99.90;;;;;;5068690;28;20472;-67
2024/01/06 09:17:04;;;;;;;36.10;29.58;;;1.30;99.90;;;;;;5070355;28;20491;-67
2024/01/06 09:19:30;;;;;;;31.20;27.60;;;1.40;99.90;;;;;;5036638;28;20415;-66
2024/01/06 09:21:56;;;;;;;30.98;27.60;;;1.40;99.90;;;;;;5069469;28;20529;-66
2024/01/06 09:24:22;;;;;;;32.83;29.27;;;1.30;99.90;;;;;;5068759;28;20917;-67
2024/01/06 09:26:50;;;;;;;34.87;30.00;;;1.40;99.90;;;;;;5070938;28;20407;-66
2024/01/06 09:29:16;;;;;;;31.70;28.25;;;1.40;99.90;;;;;;5068172;28;20403;-66
2024/01/06 09:31:42;;;;;;;32.67;29.17;;;1.40;99.90;;;;;;5069547;28;20414;-67
2024/01/06 09:34:10;;;;;;;32.10;28.60;;;1.40;99.90;;;;;;5070069;28;20452;-66
2024/01/06 09:36:36;;;;;;;29.83;26.70;;;1.40;99.90;;;;;;5070417;28;20882;-67
2024/01/06 09:39:02;;;;;;;31.43;28.10;;;1.40;99.90;;;;;;5071223;28;20398;-66
2024/01/06 09:41:27;;;;;;;33.78;30.10;;;1.50;99.90;;;;;;5070808;28;20396;-67
2024/01/06 09:43:53;;;;;;;32.78;28.63;;;1.50;99.90;;;;;;5070738;28;20456;-66
2024/01/06 09:46:29;;;;;;;32.63;28.92;;;1.50;99.90;;;;;;5070686;28;20391;-66
2024/01/06 09:48:56;;;;;;;31.58;28.23;;;1.50;99.90;;;;;;5068623;28;20400;-67
2024/01/06 09:51:23;;;;;;;31.35;28.05;;;1.50;99.90;;;;;;5069104;28;20395;-67
2024/01/06 09:54:00;;;;;;;32.53;29.10;;;1.60;99.90;;;;;;5068442;28;20485;-66
2024/01/06 09:56:28;;;;;;;31.13;27.85;;;1.50;99.90;;;;;;5067367;28;20477;-66
2024/01/06 09:58:54;;;;;;;32.13;28.30;;;1.60;99.90;;;;;;5070596;28;20884;-66
2024/01/06 10:01:20;;;;;;;35.00;31.27;;;1.60;99.90;;;;;;5070174;28;20763;-66
2024/01/06 10:03:46;;;;;;;30.35;27.23;;;1.60;99.90;;;;;;5052331;28;20414;-67
2024/01/06 10:06:14;;;;;;;33.95;30.23;;;1.60;99.90;;;;;;5049115;28;20482;-67
2024/01/06 10:08:48;;;;;;;31.23;27.92;;;1.50;99.90;;;;;;5083111;28;20972;-66
2024/01/06 10:11:14;;;;;;;31.57;28.17;;;1.50;99.90;;;;;;5068412;28;20395;-66
2024/01/06 10:13:40;;;;;;;30.05;26.95;;;1.50;99.90;;;;;;5069913;28;20481;-66
2024/01/06 10:16:06;;;;;;;30.23;27.13;;;1.50;99.90;;;;;;5068963;28;20753;-67
2024/01/06 10:18:32;;;;;;;29.08;26.08;;;1.50;99.90;;;;;;5069950;28;20866;-66
2024/01/06 10:20:59;;;;;;;29.75;26.73;;;1.40;99.90;;;;;;5067942;28;20442;-66
2024/01/06 10:23:27;;;;;;;31.52;28.23;;;1.50;99.90;;;;;;5068231;28;20435;-66
2024/01/06 10:25:56;;;;;;;33.10;29.63;;;1.50;99.90;;;;;;5069355;28;20399;-66
2024/01/06 10:28:25;;;;;;;31.67;28.37;;;1.50;99.90;;;;;;5069206;28;20502;-66
2024/01/06 10:30:55;;;;;;;33.43;29.83;;;1.50;99.90;;;;;;5068678;28;20489;-66
2024/01/06 10:33:22;;;;;;;30.98;27.77;;;1.50;99.90;;;;;;5068511;28;20502;-66
2024/01/06 10:35:49;;;;;;;30.25;27.25;;;1.50;99.90;;;;;;5067388;28;20426;-67
2024/01/06 10:38:15;;;;;;;29.38;26.38;;;1.50;99.90;;;;;;5069688;28;20923;-66
2024/01/06 10:41:06;;;;;;;30.45;27.42;;;1.50;99.90;;;;;;5068274;28;20404;-67
2024/01/06 10:43:38;;;;;;;28.90;26.00;;;1.40;99.90;;;;;;5067312;28;20908;-67
2024/01/06 10:46:04;;;;;;;29.30;26.30;;;1.40;99.90;;;;;;5051503;28;20408;-67
2024/01/06 10:48:35;;;;;;;29.57;26.57;;;1.40;99.90;;;;;;5068114;28;20492;-66
2024/01/06 10:51:07;;;;;;;27.67;24.88;;;1.40;99.90;;;;;;5068152;28;20790;-67
2024/01/06 10:53:36;;;;;;;29.85;26.75;;;1.40;99.90;;;;;;5047321;28;20515;-66
2024/01/06 10:56:02;;;;;;;28.60;25.67;;;1.40;99.90;;;;;;5068102;28;20427;-67
2024/01/06 10:58:29;;;;;;;29.02;26.13;;;1.40;99.90;;;;;;5069637;28;20399;-67
2024/01/06 11:00:56;;;;;;;28.65;25.75;;;1.40;99.90;;;;;;5068373;28;20449;-67
2024/01/06 11:03:23;;;;;;;30.42;27.25;;;1.40;99.90;;;;;;5065929;28;20415;-66
2024/01/06 11:05:50;;;;;;;31.88;28.52;;;1.50;99.90;;;;;;5069115;28;20972;-66
2024/01/06 11:08:20;;;;;;;30.70;27.42;;;1.50;99.90;;;;;;5068024;28;20435;-67
2024/01/06 11:10:46;;;;;;;31.20;27.93;;;1.40;99.90;;;;;;5068160;28;20396;-67
2024/01/06 11:13:13;;;;;;;32.17;28.88;;;1.50;99.90;;;;;;5064776;28;20506;-66
2024/01/06 11:15:41;;;;;;;31.52;28.23;;;1.50;99.90;;;;;;5067985;28;20426;-66
2024/01/06 11:18:06;;;;;;;32.70;29.27;;;1.60;99.90;;;;;;5065412;28;20477;-67
2024/01/06 11:20:32;;;;;;;33.17;29.67;;;1.50;99.90;;;;;;5050407;28;20458;-66
2024/01/06 11:23:20;;;;;;;31.13;27.90;;;1.50;99.90;;;;;;5049198;28;20881;-67
2024/01/06 11:25:46;;;;;;;33.03;29.50;;;1.60;99.90;;;;;;5067520;28;20928;-66
2024/01/06 11:28:12;;;;;;;32.72;29.23;;;1.60;99.90;;;;;;5066313;28;20482;-67
2024/01/06 11:30:39;;;;;;;32.90;29.50;;;1.60;99.90;;;;;;5067189;28;20423;-66
2024/01/06 11:33:05;;;;;;;31.00;27.77;;;1.60;99.90;;;;;;5056139;28;20415;-66
2024/01/06 11:35:31;;;;;;;32.67;29.27;;;1.60;99.90;;;;;;5069137;28;20406;-66
2024/01/06 11:38:00;;;;;;;33.58;29.98;;;1.60;99.90;;;;;;5068803;28;20888;-67
2024/01/06 11:40:32;;;;;;;32.80;29.40;;;1.60;99.90;;;;;;5068123;28;20399;-66
2024/01/06 11:43:05;;;;;;;31.40;28.15;;;1.60;99.90;;;;;;5068694;28;20753;-67
2024/01/06 11:45:32;;;;;;;32.07;28.67;;;1.60;99.90;;;;;;5068365;28;20810;-67
2024/01/06 11:48:08;;;;;;;32.97;29.47;;;1.60;99.90;;;;;;5050191;28;20412;-67
2024/01/06 11:50:38;;;;;;;33.28;29.67;;;1.60;99.90;;;;;;5065010;28;20419;-67
2024/01/06 11:53:05;;;;;;;31.73;28.33;;;1.70;99.90;;;;;;5065041;28;20427;-67
2024/01/06 11:55:32;;;;;;;32.20;28.77;;;1.60;99.90;;;;;;5067030;28;20459;-66
2024/01/06 11:58:01;;;;;;;31.58;28.27;;;1.60;99.90;;;;;;5067099;28;20841;-66
2024/01/06 12:00:28;;;;;;;30.47;27.27;;;1.50;99.90;;;;;;5065010;28;20502;-66
2024/01/06 12:02:58;;;;;;;31.23;28.02;;;1.60;99.90;;;;;;5065972;28;20403;-66
2024/01/06 12:05:26;;;;;;;34.05;30.45;;;1.60;99.90;;;;;;5067991;28;20387;-66
2024/01/06 12:08:06;;;;;;;33.47;29.88;;;1.60;99.90;;;;;;5067202;28;20404;-66
2024/01/06 12:10:33;;;;;;;32.08;28.77;;;1.60;99.90;;;;;;5066727;28;20427;-66
2024/01/06 12:13:04;;;;;;;33.20;29.70;;;1.60;99.90;;;;;;5066503;28;20507;-66
2024/01/06 12:15:32;;;;;;;33.08;29.48;;;1.60;99.90;;;;;;5066487;28;20899;-66
2024/01/06 12:17:59;;;;;;;32.55;29.15;;;1.60;99.90;;;;;;5066650;28;20396;-66
2024/01/06 12:20:26;;;;;;;32.25;28.85;;;1.60;99.90;;;;;;5066509;28;20814;-66
2024/01/06 12:22:52;;;;;;;33.47;29.92;;;1.60;99.90;;;;;;5065796;28;20859;-66
2024/01/06 12:25:20;;;;;;;32.45;29.05;;;1.60;99.90;;;;;;5065236;28;20404;-66
2024/01/06 12:27:46;;;;;;;30.33;27.20;;;1.60;99.90;;;;;;5047374;28;20460;-66
2024/01/06 12:30:18;;;;;;;30.70;27.50;;;1.60;99.90;;;;;;5066976;28;20396;-66
2024/01/06 12:32:45;;;;;;;29.58;26.48;;;1.60;99.90;;;;;;5064647;28;20510;-66